Time;durP1;ratioP1;P1;durP2;ratioP2;P2;SDS_P1;SDS_P2;PMS_P1;PMS_P2;Temp;Humidity;BMP_temperature;BMP_pressure;BME280_temperature;BME280_humidity;BME280_pressure;Samples;Min_cycle;Max_cycle;Signal;HPM_P1;HPM_P2
2023/09/09 00:00:59;;;;;;;12.70;11.17;;;;;;;19.58;100.00;98145.72;5082338;28;20204;-77
2023/09/09 00:03:25;;;;;;;12.30;11.10;;;;;;;19.58;100.00;98144.63;5094701;28;20196;-76
2023/09/09 00:05:52;;;;;;;12.83;10.83;;;;;;;19.60;100.00;98142.44;5093731;28;20208;-77
2023/09/09 00:08:19;;;;;;;14.07;11.70;;;;;;;19.54;100.00;98143.56;5093671;28;20220;-77
2023/09/09 00:10:46;;;;;;;13.50;11.37;;;;;;;19.52;100.00;98140.34;5093356;28;20227;-76
2023/09/09 00:13:13;;;;;;;12.93;11.13;;;;;;;19.53;100.00;98143.81;5093031;28;20581;-77
2023/09/09 00:15:39;;;;;;;15.40;11.47;;;;;;;19.49;100.00;98138.19;5094314;28;20686;-77
2023/09/09 00:18:06;;;;;;;12.93;11.63;;;;;;;19.50;100.00;98139.00;5094692;28;20228;-77
2023/09/09 00:20:38;;;;;;;13.10;11.63;;;;;;;19.48;100.00;98137.66;5095058;28;20573;-77
2023/09/09 00:23:07;;;;;;;13.40;11.47;;;;;;;19.42;100.00;98137.63;5076742;28;20204;-77
2023/09/09 00:25:43;;;;;;;12.90;11.57;;;;;;;19.41;100.00;98141.44;5074474;28;20236;-77
2023/09/09 00:28:11;;;;;;;13.27;11.57;;;;;;;19.37;100.00;98145.75;5074651;28;20232;-77
2023/09/09 00:30:38;;;;;;;13.60;12.20;;;;;;;19.43;100.00;98141.97;5074691;28;20201;-77
2023/09/09 00:33:07;;;;;;;12.57;11.37;;;;;;;19.35;100.00;98150.63;5091754;28;20216;-76
2023/09/09 00:35:33;;;;;;;12.53;11.43;;;;;;;19.26;100.00;98149.56;5094289;28;20647;-76
2023/09/09 00:38:00;;;;;;;12.97;11.77;;;;;;;19.25;100.00;98147.94;5094469;28;20732;-77
2023/09/09 00:40:26;;;;;;;12.47;11.30;;;;;;;19.25;100.00;98144.44;5094855;28;20204;-77
2023/09/09 00:42:53;;;;;;;14.63;11.60;;;;;;;19.21;100.00;98138.75;5094482;28;20201;-77
2023/09/09 00:45:19;;;;;;;14.77;11.10;;;;;;;19.20;100.00;98142.53;5092376;28;20764;-77
2023/09/09 00:47:46;;;;;;;12.17;10.97;;;;;;;19.14;100.00;98140.91;5094545;28;20228;-77
2023/09/09 00:50:13;;;;;;;12.73;10.97;;;;;;;19.11;100.00;98146.03;5094604;28;20204;-77
2023/09/09 00:52:41;;;;;;;12.37;11.07;;;;;;;19.10;100.00;98139.03;5094284;28;20220;-77
2023/09/09 00:55:10;;;;;;;14.83;11.87;;;;;;;19.11;100.00;98143.34;5094202;28;20208;-77
2023/09/09 00:57:37;;;;;;;13.07;11.17;;;;;;;19.08;100.00;98139.28;5094527;28;20223;-77
2023/09/09 01:00:09;;;;;;;13.37;12.03;;;;;;;19.13;100.00;98141.16;5094116;28;20214;-77
2023/09/09 01:02:42;;;;;;;14.60;10.90;;;;;;;19.08;100.00;98138.47;5094503;28;20283;-77
2023/09/09 01:05:09;;;;;;;12.50;11.50;;;;;;;19.03;100.00;98131.22;5094175;28;20192;-77
2023/09/09 01:07:49;;;;;;;12.23;10.87;;;;;;;19.07;100.00;98140.38;5093873;28;20216;-77
2023/09/09 01:10:18;;;;;;;12.97;11.67;;;;;;;19.06;100.00;98130.69;5094150;28;20302;-77
2023/09/09 01:12:44;;;;;;;13.93;10.70;;;;;;;19.07;100.00;98144.94;5093880;28;20246;-77
2023/09/09 01:15:12;;;;;;;12.90;11.53;;;;;;;19.06;100.00;98140.66;5091682;28;20196;-77
2023/09/09 01:17:39;;;;;;;13.20;11.90;;;;;;;19.11;100.00;98144.16;5093747;28;20751;-77
2023/09/09 01:20:12;;;;;;;13.13;11.83;;;;;;;19.06;100.00;98141.47;5093896;28;20211;-77
2023/09/09 01:22:40;;;;;;;16.53;12.40;;;;;;;19.03;100.00;98139.31;5088269;28;20182;-77
2023/09/09 01:25:07;;;;;;;13.73;12.30;;;;;;;18.97;100.00;98139.56;5074183;28;20208;-77
2023/09/09 01:27:34;;;;;;;13.33;12.13;;;;;;;18.94;100.00;98140.94;5073656;28;20254;-77
2023/09/09 01:30:00;;;;;;;13.63;12.23;;;;;;;18.90;100.00;98141.72;5073273;28;20215;-77
2023/09/09 01:32:27;;;;;;;13.67;12.27;;;;;;;18.94;100.00;98142.81;5073601;28;20215;-77
2023/09/09 01:34:53;;;;;;;13.63;12.23;;;;;;;18.94;100.00;98146.31;5073357;28;20212;-77
2023/09/09 01:37:20;;;;;;;13.20;12.00;;;;;;;18.87;100.00;98145.75;5073602;28;20224;-77
2023/09/09 01:39:46;;;;;;;12.73;11.43;;;;;;;18.89;100.00;98145.50;5073722;28;20204;-77
2023/09/09 01:42:12;;;;;;;12.67;11.47;;;;;;;18.86;100.00;98149.53;5073862;28;20208;-77
2023/09/09 01:44:40;;;;;;;13.40;12.17;;;;;;;18.79;100.00;98149.00;5074820;28;20291;-77
2023/09/09 01:47:06;;;;;;;13.17;11.83;;;;;;;18.78;100.00;98155.47;5074141;28;20205;-76
2023/09/09 01:49:32;;;;;;;13.77;12.27;;;;;;;18.85;100.00;98153.31;5073699;28;20686;-76
2023/09/09 01:51:59;;;;;;;14.00;12.63;;;;;;;18.85;100.00;98153.31;5074178;28;20216;-76
2023/09/09 01:54:25;;;;;;;12.93;11.53;;;;;;;18.84;100.00;98148.19;5074059;28;20205;-76
2023/09/09 01:56:51;;;;;;;12.93;11.73;;;;;;;18.84;100.00;98151.72;5073673;28;20204;-76
2023/09/09 01:59:17;;;;;;;12.10;10.90;;;;;;;18.87;100.00;98151.16;5077943;28;20203;-76
2023/09/09 02:01:44;;;;;;;13.00;11.80;;;;;;;18.86;100.00;98146.84;5093514;28;20203;-76
2023/09/09 02:04:10;;;;;;;12.70;11.60;;;;;;;18.83;100.00;98146.59;5093937;28;20218;-76
2023/09/09 02:06:36;;;;;;;11.87;10.87;;;;;;;18.85;100.00;98152.50;5093805;28;20207;-76
2023/09/09 02:09:04;;;;;;;12.47;11.17;;;;;;;18.88;100.00;98144.72;5093439;28;20220;-76
2023/09/09 02:11:30;;;;;;;13.13;12.00;;;;;;;18.87;100.00;98148.44;5093301;28;20216;-76
2023/09/09 02:13:56;;;;;;;13.27;11.87;;;;;;;18.92;100.00;98144.97;5087741;28;20212;-76
2023/09/09 02:16:23;;;;;;;13.40;11.97;;;;;;;18.95;100.00;98147.13;5073792;28;20212;-76
2023/09/09 02:18:49;;;;;;;13.00;11.77;;;;;;;18.97;100.00;98145.78;5073592;28;20224;-76
2023/09/09 02:21:15;;;;;;;12.53;11.37;;;;;;;18.94;100.00;98149.00;5085762;28;20204;-76
2023/09/09 02:23:43;;;;;;;13.07;11.77;;;;;;;18.91;100.00;98141.44;5093626;28;20227;-76
2023/09/09 02:26:09;;;;;;;12.57;11.37;;;;;;;18.85;100.00;98145.22;5079294;28;20201;-76
2023/09/09 02:28:36;;;;;;;14.27;11.70;;;;;;;18.84;100.00;98135.53;5076771;28;20235;-76
2023/09/09 02:31:02;;;;;;;13.07;11.77;;;;;;;18.80;100.00;98141.72;5076818;28;20212;-76
2023/09/09 02:33:28;;;;;;;14.20;12.83;;;;;;;18.74;100.00;98135.50;5077111;28;20232;-76
2023/09/09 02:35:55;;;;;;;13.27;11.93;;;;;;;18.68;100.00;98131.22;5077474;28;20197;-76
2023/09/09 02:38:21;;;;;;;14.23;12.30;;;;;;;18.72;100.00;98132.28;5076886;28;20690;-77
2023/09/09 02:40:47;;;;;;;12.83;11.53;;;;;;;18.74;100.00;98137.41;5076923;28;20215;-77
2023/09/09 02:43:14;;;;;;;11.90;10.80;;;;;;;18.72;100.00;98135.00;5077068;28;20193;-77
2023/09/09 02:45:40;;;;;;;14.00;11.43;;;;;;;18.71;100.00;98128.00;5076985;28;20215;-77
2023/09/09 02:48:07;;;;;;;13.10;11.90;;;;;;;18.67;100.00;98136.88;5076893;28;20231;-77
2023/09/09 02:50:34;;;;;;;12.73;11.57;;;;;;;18.70;100.00;98133.66;5076605;28;20208;-77
2023/09/09 02:53:00;;;;;;;12.63;11.53;;;;;;;18.69;100.00;98124.75;5076430;28;20223;-77
2023/09/09 02:55:27;;;;;;;13.00;11.60;;;;;;;18.65;100.00;98128.25;5076752;28;20211;-77
2023/09/09 02:57:53;;;;;;;12.80;11.70;;;;;;;18.66;100.00;98135.25;5077520;28;20231;-77
2023/09/09 03:00:19;;;;;;;13.17;11.87;;;;;;;18.62;100.00;98128.78;5091565;28;20283;-77
2023/09/09 03:02:47;;;;;;;12.97;11.77;;;;;;;18.64;100.00;98126.66;5094845;28;20536;-77
2023/09/09 03:05:13;;;;;;;13.60;12.20;;;;;;;18.61;100.00;98128.00;5096875;28;20208;-77
2023/09/09 03:07:40;;;;;;;13.63;12.40;;;;;;;18.63;100.00;98131.22;5096056;28;20226;-77
2023/09/09 03:10:07;;;;;;;12.27;10.97;;;;;;;18.62;100.00;98128.78;5076238;28;20294;-77
2023/09/09 03:12:34;;;;;;;12.83;11.73;;;;;;;18.59;100.00;98132.81;5076272;28;20231;-77
2023/09/09 03:15:01;;;;;;;13.57;12.37;;;;;;;18.60;100.00;98130.94;5088540;28;20215;-77
2023/09/09 03:17:29;;;;;;;14.13;12.70;;;;;;;18.59;100.00;98127.44;5096533;28;20220;-76
2023/09/09 03:19:56;;;;;;;13.40;12.17;;;;;;;18.62;100.00;98132.28;5096284;28;20667;-76
2023/09/09 03:22:22;;;;;;;12.90;11.60;;;;;;;18.56;100.00;98119.91;5096365;28;20204;-76
2023/09/09 03:24:48;;;;;;;13.40;12.20;;;;;;;18.56;100.00;98128.00;5096389;28;20215;-76
2023/09/09 03:27:15;;;;;;;13.77;12.37;;;;;;;18.54;100.00;98132.81;5096302;28;20228;-76
2023/09/09 03:29:41;;;;;;;13.40;12.00;;;;;;;18.52;100.00;98131.47;5096498;28;20301;-77
2023/09/09 03:32:08;;;;;;;13.50;12.40;;;;;;;18.50;100.00;98125.56;5096760;28;20235;-77
2023/09/09 03:34:34;;;;;;;13.60;12.40;;;;;;;18.52;100.00;98128.78;5095537;28;20193;-77
2023/09/09 03:37:00;;;;;;;13.53;12.13;;;;;;;18.46;100.00;98121.78;5096144;28;20204;-77
2023/09/09 03:39:27;;;;;;;14.10;12.63;;;;;;;18.38;100.00;98128.50;5095600;28;20208;-77
2023/09/09 03:41:54;;;;;;;13.70;12.50;;;;;;;18.38;100.00;98130.38;5083182;28;20283;-77
2023/09/09 03:44:20;;;;;;;14.10;12.67;;;;;;;18.42;100.00;98129.56;5075887;28;20228;-77
2023/09/09 03:46:46;;;;;;;12.97;11.83;;;;;;;18.36;100.00;98130.63;5075889;28;20211;-77
2023/09/09 03:49:13;;;;;;;13.60;12.27;;;;;;;18.34;100.00;98122.03;5087021;28;20220;-77
2023/09/09 03:51:39;;;;;;;13.13;12.03;;;;;;;18.33;100.00;98130.38;5095320;28;20570;-77
2023/09/09 03:54:06;;;;;;;13.00;11.77;;;;;;;18.31;100.00;98124.41;5095462;28;20702;-77
2023/09/09 03:56:32;;;;;;;12.97;11.70;;;;;;;18.31;100.00;98132.47;5096061;28;20208;-76
2023/09/09 03:58:59;;;;;;;13.43;12.07;;;;;;;18.30;100.00;98125.47;5095584;28;20220;-77
2023/09/09 04:01:25;;;;;;;13.70;12.40;;;;;;;18.29;100.00;98135.47;5093048;28;20196;-76
2023/09/09 04:03:51;;;;;;;14.20;12.80;;;;;;;18.23;100.00;98135.72;5088207;28;20206;-76
2023/09/09 04:06:19;;;;;;;14.93;12.40;;;;;;;18.21;100.00;98132.47;5093380;28;20295;-76
2023/09/09 04:08:46;;;;;;;13.57;12.37;;;;;;;18.20;100.00;98138.91;5095204;28;20228;-76
2023/09/09 04:11:12;;;;;;;13.90;12.63;;;;;;;18.20;100.00;98130.84;5080202;28;20262;-77
2023/09/09 04:13:40;;;;;;;14.27;12.87;;;;;;;18.21;100.00;98135.16;5078357;28;20220;-76
2023/09/09 04:16:06;;;;;;;13.70;12.43;;;;;;;18.21;100.00;98135.97;5084114;28;20201;-76
2023/09/09 04:18:33;;;;;;;13.67;12.37;;;;;;;18.19;100.00;98132.72;5075221;28;20564;-76
2023/09/09 04:20:59;;;;;;;14.10;12.73;;;;;;;18.19;100.00;98138.09;5074759;28;20208;-76
2023/09/09 04:23:26;;;;;;;13.80;12.37;;;;;;;18.16;100.00;98138.66;5082348;28;20196;-76
2023/09/09 04:25:52;;;;;;;14.17;12.93;;;;;;;18.16;100.00;98141.34;5091513;28;20204;-77
2023/09/09 04:28:18;;;;;;;14.57;12.50;;;;;;;18.13;100.00;98139.16;5095595;28;20224;-77
2023/09/09 04:30:46;;;;;;;14.23;12.93;;;;;;;18.10;100.00;98146.97;5095405;28;20200;-77
2023/09/09 04:33:12;;;;;;;13.97;12.50;;;;;;;18.03;100.00;98138.31;5095062;28;20237;-77
2023/09/09 04:35:40;;;;;;;13.97;12.57;;;;;;;17.98;100.00;98133.75;5095059;28;20568;-76
2023/09/09 04:38:08;;;;;;;13.67;12.43;;;;;;;17.89;100.00;98139.88;5094548;28;20706;-76
2023/09/09 04:40:35;;;;;;;14.43;12.93;;;;;;;17.93;100.00;98149.06;5094359;28;20204;-76
2023/09/09 04:43:02;;;;;;;14.67;13.33;;;;;;;17.87;100.00;98145.53;5079441;28;20193;-76
2023/09/09 04:45:28;;;;;;;14.60;13.10;;;;;;;17.87;100.00;98150.91;5074281;28;20250;-76
2023/09/09 04:47:54;;;;;;;14.57;13.37;;;;;;;17.77;100.00;98147.34;5074406;28;20311;-76
2023/09/09 04:50:21;;;;;;;14.60;13.20;;;;;;;17.79;100.00;98147.91;5073613;28;20204;-76
2023/09/09 04:52:48;;;;;;;15.97;13.47;;;;;;;17.70;100.00;98144.94;5079267;28;20690;-76
2023/09/09 04:55:15;;;;;;;17.63;16.03;;;;;;;17.75;100.00;98141.44;5074341;28;20204;-76
2023/09/09 04:57:42;;;;;;;14.23;12.87;;;;;;;17.75;100.00;98144.94;5073625;28;20228;-76
2023/09/09 05:00:09;;;;;;;13.90;12.70;;;;;;;17.78;100.00;98151.69;5074515;28;20200;-76
2023/09/09 05:02:37;;;;;;;14.00;12.60;;;;;;;17.77;100.00;98150.03;5074559;28;20215;-76
2023/09/09 05:05:04;;;;;;;13.37;12.20;;;;;;;17.81;100.00;98154.66;5074192;28;20204;-76
2023/09/09 05:07:35;;;;;;;13.50;12.30;;;;;;;17.87;100.00;98150.13;5074204;28;20231;-76
2023/09/09 05:10:04;;;;;;;13.53;11.63;;;;;;;17.82;100.00;98144.72;5073889;28;20212;-76
2023/09/09 05:12:31;;;;;;;13.20;12.03;;;;;;;17.85;100.00;98152.25;5074128;28;20188;-76
2023/09/09 05:14:57;;;;;;;13.30;12.10;;;;;;;17.84;100.00;98148.75;5074080;28;20208;-76
2023/09/09 05:17:23;;;;;;;13.73;12.43;;;;;;;17.93;100.00;98163.31;5073844;28;20603;-76
2023/09/09 05:19:50;;;;;;;14.03;12.67;;;;;;;18.02;100.00;98156.38;5073932;28;20208;-75
2023/09/09 05:22:17;;;;;;;14.20;12.73;;;;;;;18.14;100.00;98154.22;5073869;28;20200;-75
2023/09/09 05:24:43;;;;;;;15.03;12.30;;;;;;;18.12;100.00;98160.94;5073874;28;20258;-75
2023/09/09 05:27:10;;;;;;;13.53;12.33;;;;;;;18.15;100.00;98157.75;5073702;28;20593;-76
2023/09/09 05:29:36;;;;;;;15.73;13.47;;;;;;;18.22;100.00;98156.41;5074356;28;20209;-76
2023/09/09 05:32:02;;;;;;;14.70;13.17;;;;;;;18.23;100.00;98162.63;5074148;28;20373;-76
2023/09/09 05:34:29;;;;;;;14.93;13.50;;;;;;;18.22;100.00;98167.19;5074288;28;20231;-76
2023/09/09 05:36:55;;;;;;;15.87;14.03;;;;;;;18.23;100.00;98166.09;5074095;28;20200;-76
2023/09/09 05:39:21;;;;;;;14.97;13.47;;;;;;;18.27;100.00;98167.19;5074225;28;20211;-76
2023/09/09 05:41:48;;;;;;;14.50;13.10;;;;;;;18.33;100.00;98162.66;5074599;28;20200;-76
2023/09/09 05:44:14;;;;;;;14.40;13.07;;;;;;;18.35;100.00;98169.41;5074175;28;20659;-76
2023/09/09 05:46:41;;;;;;;14.77;13.43;;;;;;;18.42;100.00;98178.03;5074464;28;20346;-76
2023/09/09 05:49:07;;;;;;;14.20;12.90;;;;;;;18.45;100.00;98172.13;5073829;28;20228;-76
2023/09/09 05:51:33;;;;;;;14.37;13.17;;;;;;;18.50;100.00;98180.19;5074539;28;20201;-76
2023/09/09 05:54:01;;;;;;;13.83;12.43;;;;;;;18.57;100.00;98179.94;5073881;28;20247;-76
2023/09/09 05:56:28;;;;;;;13.30;12.10;;;;;;;18.61;100.00;98181.84;5073394;28;20204;-75
2023/09/09 05:58:54;;;;;;;13.70;12.37;;;;;;;18.67;100.00;98175.38;5073220;28;20224;-75
2023/09/09 06:01:21;;;;;;;13.27;11.97;;;;;;;18.62;100.00;98174.56;5073329;28;20210;-75
2023/09/09 06:03:47;;;;;;;14.67;13.13;;;;;;;18.66;100.00;98178.34;5077338;28;20201;-75
2023/09/09 06:06:14;;;;;;;14.33;12.90;;;;;;;18.70;100.00;98179.44;5076958;28;20567;-75
2023/09/09 06:08:40;;;;;;;13.10;11.90;;;;;;;18.82;100.00;98172.69;5077012;28;20707;-75
2023/09/09 06:11:06;;;;;;;13.40;12.20;;;;;;;18.86;100.00;98171.09;5076964;28;20212;-75
2023/09/09 06:13:33;;;;;;;15.10;11.33;;;;;;;18.92;100.00;98186.16;5077308;28;20251;-75
2023/09/09 06:15:59;;;;;;;12.63;11.40;;;;;;;18.97;100.00;98183.50;5076979;28;20648;-75
2023/09/09 06:18:26;;;;;;;13.03;11.67;;;;;;;19.09;100.00;98194.81;5076771;28;20235;-75
2023/09/09 06:20:53;;;;;;;14.20;12.90;;;;;;;19.13;100.00;98190.50;5077208;28;20211;-75
2023/09/09 06:23:19;;;;;;;13.87;12.47;;;;;;;19.19;100.00;98183.22;5076976;28;20200;-75
2023/09/09 06:25:45;;;;;;;13.00;11.90;;;;;;;19.23;100.00;98182.44;5076975;28;20204;-75
2023/09/09 06:28:12;;;;;;;12.90;11.70;;;;;;;19.29;100.00;98194.84;5077683;28;20230;-75
2023/09/09 06:30:43;;;;;;;12.87;11.63;;;;;;;19.35;100.00;98188.34;5077117;28;20295;-75
2023/09/09 06:33:10;;;;;;;12.37;11.27;;;;;;;19.39;100.00;98194.81;5076598;28;20640;-75
2023/09/09 06:35:36;;;;;;;14.57;12.10;;;;;;;19.38;100.00;98190.53;5076622;28;20226;-75
2023/09/09 06:38:03;;;;;;;13.13;11.93;;;;;;;19.47;100.00;98201.56;5076712;28;20228;-75
2023/09/09 06:40:32;;;;;;;12.10;10.90;;;;;;;19.50;100.00;98206.41;5076733;28;20201;-74
2023/09/09 06:42:58;;;;;;;14.23;11.83;;;;;;;19.54;100.00;98197.50;5076744;28;20204;-75
2023/09/09 06:45:25;;;;;;;12.67;11.53;;;;;;;19.54;100.00;98202.09;5076715;28;20200;-75
2023/09/09 06:47:51;;;;;;;12.20;10.90;;;;;;;19.65;100.00;98206.38;5076394;28;20220;-75
2023/09/09 06:50:17;;;;;;;12.77;11.47;;;;;;;19.75;100.00;98210.97;5076578;28;20215;-75
2023/09/09 06:52:44;;;;;;;12.30;11.10;;;;;;;19.76;100.00;98207.16;5076719;28;20204;-75
2023/09/09 06:55:10;;;;;;;13.10;11.70;;;;;;;19.84;100.00;98207.41;5076472;28;20228;-75
2023/09/09 06:57:36;;;;;;;11.97;10.87;;;;;;;19.93;100.00;98211.16;5075986;28;20742;-75
2023/09/09 07:00:04;;;;;;;12.50;11.33;;;;;;;20.14;100.00;98223.53;5075993;28;20205;-74
2023/09/09 07:02:30;;;;;;;12.23;10.90;;;;;;;20.13;100.00;98221.13;5075845;28;20642;-74
2023/09/09 07:04:57;;;;;;;12.77;11.50;;;;;;;20.14;100.00;98218.13;5075852;28;20201;-74
2023/09/09 07:07:23;;;;;;;12.97;11.87;;;;;;;20.14;100.00;98222.72;5076095;28;20233;-74
2023/09/09 07:09:49;;;;;;;14.17;11.20;;;;;;;20.17;100.00;98222.97;5076100;28;20212;-74
2023/09/09 07:12:16;;;;;;;12.30;11.00;;;;;;;20.28;100.00;98223.75;5076114;28;20193;-75
2023/09/09 07:14:42;;;;;;;10.73;9.83;;;;;;;20.30;100.00;98225.06;5075035;28;20225;-75
2023/09/09 07:17:09;;;;;;;12.57;11.10;;;;;;;20.26;100.00;98232.09;5076120;28;20298;-75
2023/09/09 07:19:36;;;;;;;12.00;10.80;;;;;;;20.29;100.00;98228.88;5075907;28;20209;-75
2023/09/09 07:22:02;;;;;;;12.23;11.07;;;;;;;20.40;100.00;98232.34;5075938;28;20230;-76
2023/09/09 07:24:28;;;;;;;14.07;10.93;;;;;;;20.47;100.00;98228.25;5076031;28;20287;-76
2023/09/09 07:26:55;;;;;;;11.93;10.73;;;;;;;20.64;100.00;98227.88;5075704;28;20208;-76
2023/09/09 07:29:21;;;;;;;11.83;10.60;;;;;;;20.84;100.00;98225.06;5075840;28;20208;-76
2023/09/09 07:31:48;;;;;;;12.30;11.10;;;;;;;21.05;100.00;98235.50;5075778;28;20208;-76
2023/09/09 07:34:14;;;;;;;11.90;10.80;;;;;;;21.00;100.00;98237.41;5082618;28;20216;-76
2023/09/09 07:36:40;;;;;;;12.43;11.10;;;;;;;20.98;100.00;98226.88;5084015;28;20200;-76
2023/09/09 07:39:07;;;;;;;13.00;11.00;;;;;;;21.13;100.00;98232.19;5085291;28;20222;-76
2023/09/09 07:41:33;;;;;;;14.70;10.90;;;;;;;21.38;100.00;98228.47;5083592;28;20219;-75
2023/09/09 07:43:59;;;;;;;11.77;10.67;;;;;;;21.32;100.00;98224.19;5085897;28;20673;-75
2023/09/09 07:46:26;;;;;;;12.47;9.90;;;;;;;21.28;100.00;98220.44;5084778;28;20558;-75
2023/09/09 07:48:52;;;;;;;11.73;10.67;;;;;;;21.52;100.00;98226.72;5084423;28;20219;-75
2023/09/09 07:51:20;;;;;;;11.60;10.40;;;;;;;21.48;100.00;98221.06;5075476;28;20221;-75
2023/09/09 07:53:47;;;;;;;11.57;10.30;;;;;;;21.59;100.00;98227.19;5075022;28;20710;-75
2023/09/09 07:56:13;;;;;;;10.80;9.80;;;;;;;21.65;100.00;98231.44;5075435;28;20238;-75
2023/09/09 07:58:40;;;;;;;11.40;10.30;;;;;;;21.77;100.00;98237.31;5074981;28;20699;-75
2023/09/09 08:01:08;;;;;;;11.20;10.13;;;;;;;21.73;100.00;98234.41;5074946;28;20209;-76
2023/09/09 08:03:35;;;;;;;11.17;10.17;;;;;;;21.78;100.00;98239.75;5075143;28;20211;-76
2023/09/09 08:06:06;;;;;;;15.47;10.03;;;;;;;21.94;100.00;98243.94;5074862;28;20204;-76
2023/09/09 08:08:35;;;;;;;12.70;9.85;;;;;;;21.97;100.00;98248.75;5074971;28;20240;-76
2023/09/09 08:11:02;;;;;;;10.80;9.88;;;;;;;22.16;100.00;98241.50;5074586;28;20401;-76
2023/09/09 08:13:28;;;;;;;11.35;10.23;;;;;;;22.08;100.00;98250.28;5074906;28;20204;-76
2023/09/09 08:15:54;;;;;;;11.15;10.05;;;;;;;22.07;100.00;98248.63;5074964;28;20208;-76
2023/09/09 08:18:21;;;;;;;11.05;9.50;;;;;;;22.20;100.00;98249.88;5075154;28;20228;-77
2023/09/09 08:20:51;;;;;;;10.10;9.20;;;;;;;22.41;100.00;98253.94;5075090;28;20207;-77
2023/09/09 08:23:18;;;;;;;11.02;9.93;;;;;;;22.44;100.00;98253.34;5075588;28;20566;-77
2023/09/09 08:25:44;;;;;;;11.10;10.20;;;;;;;22.38;100.00;98255.31;5074919;28;20201;-77
2023/09/09 08:28:11;;;;;;;11.15;9.75;;;;;;;22.34;100.00;98254.28;5074866;28;20235;-77
2023/09/09 08:30:38;;;;;;;10.82;9.23;;;;;;;22.41;100.00;98252.03;5074973;28;20204;-77
2023/09/09 08:33:04;;;;;;;10.35;9.38;;;;;;;22.53;100.00;98254.34;5075015;28;20212;-77
2023/09/09 08:35:31;;;;;;;10.82;9.77;;;;;;;22.57;100.00;98256.19;5077022;28;20223;-77
2023/09/09 08:37:59;;;;;;;9.98;9.07;;;;;;;22.70;100.00;98257.41;5094926;28;20226;-77
2023/09/09 08:40:26;;;;;;;9.63;8.82;;;;;;;22.79;100.00;98261.06;5077343;28;20196;-77
2023/09/09 08:43:14;;;;;;;10.18;9.18;;;;;;;22.92;100.00;98260.34;5074663;28;20209;-77
2023/09/09 08:45:57;;;;;;;11.18;10.07;;;;;;;23.23;100.00;98253.38;5074231;28;20207;-76
2023/09/09 08:48:24;;;;;;;9.23;8.43;;;;;;;23.42;100.00;98254.16;5057432;28;20239;-76
2023/09/09 08:50:54;;;;;;;9.20;8.32;;;;;;;23.58;100.00;98252.81;5073948;28;20200;-76
2023/09/09 08:53:22;;;;;;;11.90;8.80;;;;;;;23.48;100.00;98252.97;5074251;28;20211;-77
2023/09/09 08:55:49;;;;;;;9.85;8.98;;;;;;;23.53;100.00;98255.59;5073815;28;20238;-77
2023/09/09 08:58:15;;;;;;;10.25;8.80;;;;;;;23.54;100.00;98257.22;5074068;28;20228;-77
2023/09/09 09:00:42;;;;;;;8.75;8.05;;;;;;;23.64;100.00;98257.03;5091804;28;20290;-77
2023/09/09 09:03:09;;;;;;;8.70;7.95;;;;;;;23.98;100.00;98260.25;5094399;28;20688;-77
2023/09/09 09:05:36;;;;;;;9.32;8.50;;;;;;;24.02;100.00;98253.13;5076031;28;20654;-77
2023/09/09 09:08:03;;;;;;;9.32;8.52;;;;;;;24.09;100.00;98259.75;5093792;28;20228;-77
2023/09/09 09:10:30;;;;;;;9.63;8.52;;;;;;;24.13;100.00;98249.09;5077038;28;20212;-77
2023/09/09 09:12:56;;;;;;;11.52;8.65;;;;;;;24.20;100.00;98250.31;5073669;28;20211;-77
2023/09/09 09:15:25;;;;;;;8.27;7.50;;;;;;;24.27;100.00;98252.63;5073830;28;20224;-78
2023/09/09 09:17:53;;;;;;;8.35;7.22;;;;;;;24.38;100.00;98252.13;5074158;28;20225;-78
2023/09/09 09:20:33;;;;;;;7.55;6.82;;;;;;;24.52;100.00;98254.84;5073120;28;20675;-77
2023/09/09 09:23:02;;;;;;;9.43;7.85;;;;;;;24.53;100.00;98248.28;5074158;28;20188;-77
2023/09/09 09:25:29;;;;;;;9.63;7.50;;;;;;;24.72;100.00;98252.53;5073697;28;20196;-76
2023/09/09 09:27:58;;;;;;;9.60;8.57;;;;;;;25.03;100.00;98256.19;5073363;28;20228;-76
2023/09/09 09:30:28;;;;;;;7.47;6.75;;;;;;;25.25;100.00;98253.50;5080945;28;20207;-77
2023/09/09 09:32:55;;;;;;;7.65;6.95;;;;;;;25.47;96.46;98253.50;5076396;28;20236;-76
2023/09/09 09:35:29;;;;;;;7.05;6.45;;;;;;;25.84;94.41;98247.66;5090354;28;20219;-76
2023/09/09 09:38:01;;;;;;;7.72;7.03;;;;;;;25.93;94.03;98243.09;5082667;28;20220;-76
2023/09/09 09:40:29;;;;;;;8.50;7.50;;;;;;;25.89;93.56;98244.00;5073804;28;20211;-77
2023/09/09 09:42:55;;;;;;;7.72;7.03;;;;;;;26.02;91.98;98243.13;5074365;28;20211;-78
2023/09/09 09:45:29;;;;;;;8.20;7.50;;;;;;;25.87;91.49;98238.06;5073621;28;20570;-78
2023/09/09 09:47:57;;;;;;;7.03;6.32;;;;;;;25.90;95.59;98237.41;5073610;28;20228;-78
2023/09/09 09:50:28;;;;;;;7.82;7.03;;;;;;;26.08;95.48;98236.41;5073544;28;20210;-77
2023/09/09 09:53:02;;;;;;;8.05;7.35;;;;;;;26.15;93.83;98247.69;5073583;28;20189;-77
2023/09/09 09:55:30;;;;;;;8.80;7.10;;;;;;;26.37;94.78;98242.16;5073468;28;20220;-77
2023/09/09 09:57:59;;;;;;;8.73;7.90;;;;;;;26.56;92.38;98242.69;5073222;28;20242;-77
2023/09/09 10:00:26;;;;;;;9.07;8.27;;;;;;;26.60;91.82;98240.97;5073382;28;20207;-77
2023/09/09 10:02:54;;;;;;;8.52;7.72;;;;;;;26.73;90.74;98243.53;5073511;28;20243;-77
2023/09/09 10:05:25;;;;;;;8.30;7.60;;;;;;;26.48;93.62;98241.53;5073095;28;20197;-76
2023/09/09 10:07:54;;;;;;;7.60;6.93;;;;;;;26.30;90.29;98244.50;5073107;28;20584;-76
2023/09/09 10:10:23;;;;;;;8.10;7.25;;;;;;;26.31;92.29;98243.38;5054895;28;20216;-76
2023/09/09 10:13:02;;;;;;;7.32;6.80;;;;;;;26.77;86.44;98239.06;5072703;28;20210;-76
2023/09/09 10:15:31;;;;;;;7.93;7.18;;;;;;;26.76;86.51;98234.72;5073329;28;20209;-76
2023/09/09 10:18:00;;;;;;;8.15;7.32;;;;;;;26.76;88.00;98231.19;5073013;28;20229;-76
2023/09/09 10:20:28;;;;;;;8.23;7.53;;;;;;;26.81;88.72;98239.22;5083568;28;20216;-76
2023/09/09 10:22:59;;;;;;;7.70;7.00;;;;;;;26.80;88.02;98238.44;5079936;28;20231;-77
2023/09/09 10:25:31;;;;;;;7.57;6.88;;;;;;;27.24;85.05;98231.88;5073286;28;20185;-77
2023/09/09 10:27:58;;;;;;;7.18;6.57;;;;;;;26.95;83.66;98237.13;5073018;28;20224;-77
2023/09/09 10:30:25;;;;;;;6.68;6.07;;;;;;;26.86;83.49;98236.31;5072877;28;20640;-77
2023/09/09 10:32:54;;;;;;;7.22;6.20;;;;;;;27.12;85.44;98234.41;5072968;28;20205;-77
2023/09/09 10:35:22;;;;;;;6.72;6.10;;;;;;;27.39;83.62;98231.38;5073363;28;20224;-77
2023/09/09 10:37:51;;;;;;;6.60;6.00;;;;;;;27.33;83.94;98227.22;5072969;28;20232;-77
2023/09/09 10:40:19;;;;;;;7.68;5.93;;;;;;;27.45;80.97;98242.97;5072853;28;20201;-76
2023/09/09 10:42:46;;;;;;;6.65;5.97;;;;;;;27.21;79.58;98221.59;5054959;28;20201;-77
2023/09/09 10:45:32;;;;;;;6.35;5.85;;;;;;;27.56;79.09;98219.63;5079269;28;20196;-76
2023/09/09 10:48:03;;;;;;;6.00;5.50;;;;;;;27.81;77.77;98219.59;5093876;28;20235;-76
2023/09/09 10:50:45;;;;;;;6.07;5.47;;;;;;;27.74;77.58;98216.53;5084673;28;20204;-76
2023/09/09 10:53:22;;;;;;;6.63;5.82;;;;;;;27.63;79.65;98220.72;5077025;28;20207;-76
2023/09/09 10:55:53;;;;;;;6.63;5.93;;;;;;;27.17;77.65;98222.56;5076611;28;20265;-77
2023/09/09 10:58:21;;;;;;;6.63;5.90;;;;;;;27.42;80.03;98217.09;5085263;28;20280;-77
2023/09/09 11:00:50;;;;;;;6.68;5.70;;;;;;;27.30;76.86;98227.88;5096473;28;20212;-77
2023/09/09 11:03:22;;;;;;;6.30;5.18;;;;;;;27.64;76.92;98230.56;5096575;28;20204;-77
2023/09/09 11:06:00;;;;;;;7.55;5.53;;;;;;;27.84;76.44;98223.59;5095105;28;20215;-77
2023/09/09 11:08:32;;;;;;;5.97;5.47;;;;;;;28.01;77.04;98224.38;5094562;28;20228;-77
2023/09/09 11:11:35;;;;;;;7.00;5.88;;;;;;;28.00;76.34;98220.03;5095345;28;20892;-78
2023/09/09 11:14:04;;;;;;;6.40;5.68;;;;;;;27.87;75.76;98229.25;5095997;28;20290;-77
2023/09/09 11:16:46;;;;;;;5.70;5.20;;;;;;;27.60;75.80;98215.94;5096734;28;20332;-78